CST,Max TemperatureF,Mean TemperatureF,Min TemperatureF,Max Dew PointF,MeanDew PointF,Min DewpointF,Max Humidity, Mean Humidity, Min Humidity, Max Sea Level PressureIn, Mean Sea Level PressureIn, Min Sea Level PressureIn, Max VisibilityMiles, Mean VisibilityMiles, Min VisibilityMiles, Max Wind SpeedMPH, Mean Wind SpeedMPH, Max Gust SpeedMPH,PrecipitationIn, CloudCover, Events, WindDirDegrees
2012-2-1,62,44,26,31,25,21,85,55,24,30.18,30.13,30.10,10,10,10,8,2,,0.00,1,,260
2012-2-2,57,41,25,30,26,18,78,56,32,30.27,30.20,30.16,10,10,10,10,3,,0.00,0,,110
2012-2-3,45,42,39,41,37,30,96,84,56,30.19,30.14,30.06,10,6,2,23,14,33,0.99,8,Rain-Thunderstorm,75
2012-2-4,39,36,32,37,31,29,100,93,87,30.36,30.22,30.06,10,3,1,17,14,28,0.24,8,Rain-Snow,3
2012-2-5,35,28,21,29,25,20,100,89,78,30.45,30.39,30.34,10,7,0,12,7,,0.04,2,Fog,330
2012-2-6,48,34,19,32,26,18,96,81,52,30.36,30.26,30.19,10,6,0,15,2,,0.00,1,Fog,269
2012-2-7,34,32,30,30,28,26,89,85,78,30.51,30.37,30.22,10,8,2,15,8,22,0.00,8,Snow,354
2012-2-8,33,30,26,25,21,17,86,72,61,30.54,30.47,30.38,10,10,10,12,7,,0.00,8,,3
2012-2-9,39,34,28,30,28,23,89,78,65,30.38,30.20,30.06,10,9,7,13,5,,0.00,8,,202
2012-2-10,34,22,10,30,10,-3,85,63,46,30.61,30.31,30.05,10,10,9,22,13,33,0.00,2,,334
2012-2-11,21,12,3,2,-2,-5,80,60,42,30.82,30.73,30.62,10,10,10,13,9,20,0.00,0,,323
2012-2-12,36,18,1,9,2,-3,83,50,23,30.70,30.45,30.10,10,10,10,16,7,22,0.00,3,,184
2012-2-13,33,30,26,31,27,8,96,90,37,30.09,29.89,29.74,10,4,1,20,12,26,0.07,8,Snow,173
2012-2-14,48,34,19,34,25,16,96,85,58,29.91,29.86,29.81,10,6,0,15,5,21,0.01,1,Fog,199
2012-2-15,46,36,26,39,32,25,100,89,74,30.13,29.93,29.86,8,4,1,12,4,,0.00,6,Rain,357
2012-2-16,48,24,1,30,24,1,100,64,34,30.33,30.24,30.16,10,10,7,12,7,,0.00,0,,263
2012-2-17,53,42,28,31,27,24,82,62,37,30.23,30.14,30.09,10,10,10,16,8,,0.00,0,,296
2012-2-18,43,31,19,24,21,17,89,66,42,30.31,30.22,30.15,10,10,10,10,5,,0.00,1,,5
2012-2-19,48,33,18,28,22,16,92,67,36,30.17,30.09,30.01,10,10,9,14,4,17,0.00,0,,142
2012-2-20,46,40,33,43,36,24,100,84,62,30.01,29.75,29.59,10,8,2,26,14,38,0.11,6,Rain,146
2012-2-21,50,42,33,39,31,26,93,71,41,29.91,29.78,29.64,10,10,9,20,14,30,0.00,3,Rain,262
2012-2-22,57,47,37,35,31,26,71,56,40,29.67,29.53,29.39,10,10,10,17,11,18,0.00,3,,273
2012-2-23,50,42,33,40,34,27,93,74,59,29.81,29.46,29.22,10,10,3,28,14,47,0.01,6,Rain-Snow,317
2012-2-24,45,36,28,34,25,15,96,70,31,30.27,30.08,29.84,10,10,7,22,15,43,0.00,3,Snow,306
2012-2-25,42,30,17,25,19,12,88,62,41,30.36,30.17,29.83,10,10,10,20,9,29,0.00,0,,142
2012-2-26,61,46,32,25,21,16,66,39,18,30.26,29.95,29.78,10,10,10,23,15,32,0.00,0,,259
2012-2-27,42,32,21,23,18,12,75,54,37,30.54,30.43,30.30,10,10,10,17,8,,0.00,1,,23
2012-2-28,60,48,36,55,42,21,96,77,49,30.27,29.75,29.37,10,8,2,30,12,50,0.11,7,Rain,148
2012-2-29,48,39,28,36,27,24,85,61,46,29.90,29.73,29.51,10,10,10,38,25,48,0.01,1,,279